createdAt,value
2022-11-20T00:02:02.041Z,14.43
2022-11-20T00:04:28.740Z,11.80
2022-11-20T00:06:57.117Z,10.20
2022-11-20T00:09:23.972Z,11.68
2022-11-20T00:11:50.699Z,9.50
2022-11-20T00:14:17.482Z,12.10
2022-11-20T00:16:44.157Z,10.23
2022-11-20T00:19:10.930Z,9.63
2022-11-20T00:21:37.675Z,10.02
2022-11-20T00:24:06.667Z,8.90
2022-11-20T00:26:33.365Z,10.07
2022-11-20T00:29:01.633Z,11.50
2022-11-20T00:31:29.198Z,9.10
2022-11-20T00:33:56.365Z,9.82
2022-11-20T00:36:24.598Z,10.32
2022-11-20T00:38:53.107Z,9.77
2022-11-20T00:41:21.688Z,14.13
2022-11-20T00:43:48.589Z,8.18
2022-11-20T00:46:17.717Z,7.85
2022-11-20T00:48:45.128Z,9.70
2022-11-20T00:51:13.550Z,6.25
2022-11-20T00:53:40.187Z,7.70
2022-11-20T00:56:10.429Z,8.18
2022-11-20T00:58:39.933Z,6.13
2022-11-20T01:01:08.459Z,8.43
2022-11-20T01:03:36.739Z,6.25
2022-11-20T01:06:04.710Z,5.88
2022-11-20T01:08:32.162Z,7.03
2022-11-20T01:11:02.138Z,6.18
2022-11-20T01:13:29.657Z,5.72
2022-11-20T01:16:03.225Z,6.68
2022-11-20T03:14:38.597Z,9.82
2022-11-20T13:15:09.821Z,5.90
2022-11-20T13:17:42.980Z,6.90
2022-11-20T13:20:16.818Z,6.07
2022-11-20T13:22:46.380Z,6.20
2022-11-20T13:25:23.612Z,7.57
2022-11-20T13:27:51.308Z,8.57
2022-11-20T13:30:21.278Z,8.93
2022-11-20T13:32:53.334Z,4.75
2022-11-20T13:35:29.121Z,3.20
2022-11-20T13:38:05.021Z,4.70
2022-11-20T13:40:31.906Z,3.65
2022-11-20T13:43:16.501Z,3.70
2022-11-20T13:45:56.115Z,4.75
2022-11-20T13:50:59.821Z,7.35
2022-11-20T13:53:39.819Z,5.65
2022-11-20T13:56:15.888Z,5.80
2022-11-20T13:58:53.345Z,7.30
2022-11-20T14:01:24.841Z,8.40
2022-11-20T14:04:08.321Z,8.38
2022-11-20T14:06:42.128Z,9.95
2022-11-20T14:09:12.441Z,9.25
2022-11-20T14:11:47.811Z,9.80
2022-11-20T14:14:17.403Z,11.63
2022-11-20T14:19:30.656Z,10.30
2022-11-20T14:22:09.809Z,11.23
2022-11-20T14:24:36.465Z,8.82
2022-11-20T14:27:04.764Z,11.13
2022-11-20T14:29:37.281Z,9.13
2022-11-20T14:32:10.070Z,7.78
2022-11-20T14:34:42.630Z,8.48
2022-11-20T14:37:17.108Z,6.55
2022-11-20T14:39:50.349Z,5.85
2022-11-20T14:42:20.911Z,6.60
2022-11-20T14:44:53.663Z,7.93
2022-11-20T14:47:24.613Z,7.90
2022-11-20T14:49:56.739Z,7.00
2022-11-20T14:52:25.632Z,8.32
2022-11-20T14:54:54.128Z,7.40
2022-11-20T14:57:24.298Z,8.00
2022-11-20T15:00:04.283Z,9.50
2022-11-20T15:02:42.223Z,8.43
2022-11-20T15:05:12.332Z,8.02
2022-11-20T15:07:41.725Z,7.55
2022-11-20T15:10:10.806Z,8.32
2022-11-20T15:12:41.566Z,9.32
2022-11-20T15:15:14.889Z,8.18
2022-11-20T15:17:55.231Z,7.75
2022-11-20T15:20:26.856Z,8.25
2022-11-20T15:22:58.941Z,12.32
2022-11-20T15:25:25.881Z,10.07
2022-11-20T15:27:57.057Z,10.18
2022-11-20T15:30:25.564Z,8.15
2022-11-20T15:32:53.661Z,7.57
2022-11-20T15:35:20.367Z,8.25
2022-11-20T15:37:47.601Z,8.77
2022-11-20T15:40:14.643Z,9.15
2022-11-20T15:42:51.153Z,9.73
2022-11-20T15:45:20.196Z,8.07
2022-11-20T15:48:12.686Z,8.32
2022-11-20T15:50:47.488Z,9.15
2022-11-20T15:53:23.688Z,9.10
2022-11-20T15:55:55.398Z,10.57
2022-11-20T15:58:41.783Z,8.90
2022-11-20T16:01:11.648Z,10.65
2022-11-20T16:03:46.665Z,9.60
2022-11-20T16:06:13.596Z,10.90
2022-11-20T16:08:40.363Z,12.27
2022-11-20T16:11:07.152Z,14.10
2022-11-20T16:13:58.453Z,14.23
2022-11-20T16:16:29.259Z,11.35
2022-11-20T16:19:15.484Z,14.45
2022-11-20T16:21:42.751Z,12.77
2022-11-20T16:24:18.836Z,14.48
2022-11-20T16:26:45.884Z,13.20
2022-11-20T16:29:22.013Z,15.25
2022-11-20T16:31:48.787Z,14.68
2022-11-20T16:34:17.782Z,14.95
2022-11-20T16:36:45.230Z,14.15
2022-11-20T16:39:12.940Z,14.82
2022-11-20T16:41:39.959Z,15.63
2022-11-20T16:44:08.886Z,18.83
2022-11-20T16:46:35.940Z,16.35
2022-11-20T16:49:04.445Z,16.08
2022-11-20T16:51:35.912Z,20.00
2022-11-20T16:54:04.892Z,17.55
2022-11-20T16:56:31.870Z,16.83
2022-11-20T16:59:00.167Z,22.67
2022-11-20T17:01:30.645Z,18.85
2022-11-20T17:03:59.186Z,22.60
2022-11-20T17:06:27.977Z,21.35
2022-11-20T17:08:58.716Z,21.77
2022-11-20T17:11:31.549Z,22.65
2022-11-20T17:13:59.020Z,20.75
2022-11-20T17:16:25.835Z,20.35
2022-11-20T17:18:58.323Z,20.88
2022-11-20T17:21:31.611Z,21.35
2022-11-20T17:24:02.377Z,19.55
2022-11-20T17:26:32.395Z,20.52
2022-11-20T17:29:03.605Z,18.98
2022-11-20T17:31:31.797Z,18.80
2022-11-20T17:33:59.059Z,19.52
2022-11-20T17:36:30.996Z,19.02
2022-11-20T17:39:02.322Z,16.60
2022-11-20T17:41:32.118Z,18.55
2022-11-20T17:44:04.028Z,18.27
2022-11-20T17:46:33.753Z,19.83
2022-11-20T17:49:02.822Z,17.67
2022-11-20T17:51:31.635Z,17.85
2022-11-20T17:54:03.071Z,16.93
2022-11-20T17:56:32.836Z,16.00
2022-11-20T17:58:59.969Z,15.48
2022-11-20T18:01:26.707Z,16.73
2022-11-20T18:03:53.404Z,17.00
2022-11-20T18:06:22.728Z,12.80
2022-11-20T18:08:50.241Z,15.88
2022-11-20T18:11:19.724Z,14.20
2022-11-20T18:13:55.203Z,14.68
2022-11-20T18:16:25.537Z,13.90
2022-11-20T18:18:54.563Z,15.38
2022-11-20T18:21:32.227Z,12.98
2022-11-20T18:23:58.933Z,11.50
2022-11-20T18:26:55.268Z,11.20
2022-11-20T18:29:26.957Z,15.68
2022-11-20T18:31:53.853Z,14.07
2022-11-20T18:34:22.375Z,12.80
2022-11-20T18:37:07.747Z,14.33
2022-11-20T18:39:34.638Z,14.25
2022-11-20T18:42:01.603Z,12.90
2022-11-20T18:44:31.685Z,14.48
2022-11-20T18:46:58.398Z,12.40
2022-11-20T18:49:34.157Z,11.15
2022-11-20T18:52:01.165Z,15.10
2022-11-20T18:54:29.806Z,17.52
2022-11-20T18:56:56.608Z,19.20
2022-11-20T18:59:36.716Z,16.95
2022-11-20T19:02:03.406Z,16.20
2022-11-20T19:04:30.124Z,16.67
2022-11-20T19:07:20.858Z,18.58
2022-11-20T19:09:51.948Z,15.73
2022-11-20T19:12:19.353Z,18.52
2022-11-20T19:14:47.955Z,17.27
2022-11-20T19:17:14.769Z,13.45
2022-11-20T19:19:43.618Z,16.25
2022-11-20T19:22:10.464Z,14.40
2022-11-20T19:24:46.500Z,13.43
2022-11-20T19:27:13.148Z,13.35
2022-11-20T19:29:39.865Z,16.00
2022-11-20T19:32:18.273Z,14.27
2022-11-20T19:35:05.548Z,15.88
2022-11-20T19:37:35.112Z,17.00
2022-11-20T19:40:02.076Z,20.05
2022-11-20T19:42:29.975Z,27.05
2022-11-20T19:44:56.666Z,31.55
2022-11-20T19:48:06.148Z,36.35
2022-11-20T19:50:21.729Z,33.65
2022-11-20T19:52:58.720Z,30.40
2022-11-20T19:55:25.795Z,31.63
2022-11-20T19:57:52.684Z,36.55
2022-11-20T20:00:49.262Z,37.80
2022-11-20T20:03:17.606Z,39.30
2022-11-20T20:05:48.554Z,41.85
2022-11-20T20:08:17.077Z,40.25
2022-11-20T20:10:44.271Z,31.10
2022-11-20T20:13:12.034Z,31.05
2022-11-20T20:15:39.987Z,30.50
2022-11-20T20:18:33.914Z,32.17
2022-11-20T20:21:03.902Z,44.90
2022-11-20T20:23:30.989Z,42.70
2022-11-20T20:25:59.095Z,47.90
2022-11-20T20:28:26.006Z,51.03
2022-11-20T20:30:54.151Z,55.80
2022-11-20T20:33:21.228Z,59.58
2022-11-20T20:35:49.699Z,52.58
2022-11-20T20:38:16.336Z,49.28
2022-11-20T20:40:47.481Z,48.53
2022-11-20T20:43:14.144Z,42.65
2022-11-20T20:45:48.913Z,48.08
2022-11-20T20:48:16.624Z,43.65
2022-11-20T20:50:55.167Z,43.40
2022-11-20T20:53:22.937Z,47.30
2022-11-20T20:55:56.475Z,52.92
2022-11-20T20:58:23.192Z,55.85
2022-11-20T21:00:50.415Z,54.72
2022-11-20T21:03:17.095Z,51.80
2022-11-20T21:05:44.032Z,45.58
2022-11-20T21:08:12.832Z,43.78
2022-11-20T21:10:39.573Z,40.33
2022-11-20T21:13:06.227Z,34.20
2022-11-20T21:15:32.866Z,30.75
2022-11-20T21:17:59.483Z,28.58
2022-11-20T21:20:26.172Z,43.85
2022-11-20T21:22:52.829Z,27.67
2022-11-20T21:25:21.053Z,29.70
2022-11-20T21:27:47.885Z,28.00
2022-11-20T21:30:14.709Z,29.48
2022-11-20T21:32:47.725Z,29.98
2022-11-20T21:35:14.505Z,29.83
2022-11-20T21:37:41.303Z,28.90
2022-11-20T21:40:09.373Z,26.08
2022-11-20T21:42:37.626Z,27.00
2022-11-20T21:45:05.205Z,31.17
2022-11-20T21:47:37.091Z,38.20
2022-11-20T21:50:04.844Z,33.15
2022-11-20T21:52:31.882Z,31.80
2022-11-20T21:54:58.649Z,33.55
2022-11-20T21:57:25.500Z,35.83
2022-11-20T21:59:53.984Z,38.20
2022-11-20T22:02:32.975Z,55.97
2022-11-20T22:05:00.393Z,42.85
2022-11-20T22:07:27.361Z,41.20
2022-11-20T22:09:54.435Z,50.75
2022-11-20T22:12:21.397Z,51.58
2022-11-20T22:14:48.217Z,55.00
2022-11-20T22:17:16.788Z,36.05
2022-11-20T22:19:43.763Z,45.88
2022-11-20T22:22:10.641Z,75.10
2022-11-20T22:24:37.379Z,38.70
2022-11-20T22:27:04.129Z,68.38
2022-11-20T22:29:31.324Z,50.50
2022-11-20T22:32:01.165Z,50.03
2022-11-20T22:34:29.220Z,48.03
2022-11-20T22:36:55.986Z,46.75
2022-11-20T22:39:22.722Z,72.43
2022-11-20T22:41:49.371Z,59.35
2022-11-20T22:47:39.311Z,160.27
2022-11-20T22:50:08.257Z,74.68
2022-11-20T22:52:34.941Z,101.97
2022-11-20T22:55:01.607Z,85.88
2022-11-20T22:57:28.273Z,84.57
2022-11-20T22:59:54.898Z,112.15
2022-11-20T23:02:21.507Z,84.88
2022-11-20T23:04:48.112Z,118.00
2022-11-20T23:07:16.148Z,77.90
2022-11-20T23:09:42.778Z,116.88
2022-11-20T23:12:09.438Z,111.55
2022-11-20T23:14:36.052Z,76.30
2022-11-20T23:17:02.652Z,105.07
2022-11-20T23:19:29.251Z,126.43
2022-11-20T23:21:55.818Z,91.70
2022-11-20T23:24:23.959Z,74.75
2022-11-20T23:26:50.641Z,121.85
2022-11-20T23:29:17.368Z,80.28
2022-11-20T23:31:44.032Z,105.47
2022-11-20T23:34:10.699Z,123.65
2022-11-20T23:36:37.335Z,47.15
2022-11-20T23:39:04.166Z,88.82
2022-11-20T23:41:32.202Z,46.78
2022-11-20T23:43:58.834Z,86.63
2022-11-20T23:46:25.593Z,56.10
2022-11-20T23:48:52.316Z,65.93
2022-11-20T23:51:19.073Z,46.90
2022-11-20T23:53:45.667Z,64.47
2022-11-20T23:56:12.363Z,61.58
2022-11-20T23:58:40.546Z,43.25
